Seaexpressii — HO4619 — position and weather

sailwx.info

Track history (hours):
 
Tides and Currents Weather Stations Pressure Air Temp Water Temp Dewpoint Dewpoint Depression Visibility Wind Speed Wind Dir Waves Ship Positions

Seaexpressii

Last reported at 2015-Mar-27 23:06 UTC. Time now 2015-Mar-29 03:08 UTC.
Position N 26°04' W 080°08'.

Length 37 m; draft 2.1 m.

Type: Ship. MMSI: 356449000.

Date/timePositionNaut miles runAvg speedWind from/ knotsBaromVisibWave heightAir tempDewpointWater temp
2015-Mar-27 23:06N 26°04' W 080°08'0 0.0
2015-Mar-27 22:33N 26°04' W 080°08'0 0.0
2015-Mar-27 21:33N 26°04' W 080°08'3 2.8
2015-Mar-27 20:33N 26°05' W 080°05'2 2.2
2015-Mar-27 19:33N 26°04' W 080°03'1010.3
2015-Mar-27 18:33N 25°59' W 079°52'1110.6
2015-Mar-27 17:33N 25°54' W 079°42'1010.0
2015-Mar-27 16:31N 25°50' W 079°32'14 0.9
2015-Mar-27 00:30N 25°43' W 079°19'31 1.8
2015-Mar-26 07:32N 25°55' W 079°50'7 7.4
2015-Mar-26 06:33N 25°60' W 079°56'9 8.6
2015-Mar-26 05:33N 26°05' W 080°04'3 3.5
2015-Mar-26 04:34N 26°04' W 080°08'0 0.0
2015-Mar-26 03:33N 26°04' W 080°08'0 0.0
2015-Mar-26 02:33N 26°04' W 080°08'0 0.0
2015-Mar-26 01:33N 26°04' W 080°08'0 0.1
2015-Mar-26 00:33N 26°04' W 080°08'0 0.0
2015-Mar-25 23:33N 26°04' W 080°08'0 0.0
2015-Mar-25 22:33N 26°04' W 080°08'0 0.0
2015-Mar-25 21:33N 26°04' W 080°08'5 5.2
2015-Mar-25 20:34N 26°06' W 080°03'9 8.7
2015-Mar-25 19:33N 26°09' W 079°54'9 8.8
2015-Mar-25 18:34N 26°12' W 079°44'9 8.9
2015-Mar-25 17:33N 26°15' W 079°35'10 9.5
2015-Mar-25 16:29N 26°19' W 079°25'16 1.4
2015-Mar-25 05:30N 26°14' W 079°41'1010.4
2015-Mar-25 04:33N 26°11' W 079°52'1110.6
2015-Mar-25 03:34N 26°07' W 080°03'6 5.8
2015-Mar-25 02:33N 26°04' W 080°08'0 0.1
2015-Mar-25 01:33N 26°04' W 080°08'0 0.1
2015-Mar-25 00:34N 26°04' W 080°08'0 0.0
2015-Mar-24 23:33N 26°04' W 080°08'0 0.0
2015-Mar-24 22:33N 26°04' W 080°08'0 0.1
2015-Mar-24 21:33N 26°04' W 080°08'0 0.5
2015-Mar-24 20:33N 26°04' W 080°07'7 6.7
2015-Mar-24 19:33N 26°07' W 080°01'9 8.8
2015-Mar-24 18:33N 26°10' W 079°51'8 8.5
2015-Mar-24 17:33N 26°13' W 079°42'9 8.7
2015-Mar-24 16:33N 26°15' W 079°33'9 0.7
2015-Mar-24 03:33N 26°13' W 079°43'1111.3
2015-Mar-24 02:33N 26°09' W 079°55'1110.6
2015-Mar-24 01:33N 26°06' W 080°06'2 2.4
2015-Mar-24 00:33N 26°04' W 080°08'0 0.0
2015-Mar-23 23:34N 26°04' W 080°08'0 0.0
2015-Mar-23 22:34N 26°04' W 080°08'0 0.0
2015-Mar-23 21:33N 26°04' W 080°08'0 0.0
2015-Mar-23 20:33N 26°04' W 080°08'0 0.0
2015-Mar-23 19:33N 26°04' W 080°08'0 0.1
2015-Mar-23 18:33N 26°04' W 080°08'0 0.0
2015-Mar-23 17:33N 26°04' W 080°08'0 0.0
2015-Mar-23 16:33N 26°04' W 080°08'0 0.0
2015-Mar-23 15:33N 26°04' W 080°08'0 0.0
2015-Mar-23 14:33N 26°04' W 080°08'0 0.0
2015-Mar-23 13:33N 26°04' W 080°08'0 0.4
2015-Mar-23 12:33N 26°04' W 080°07'5 5.3
2015-Mar-23 11:33N 26°04' W 080°01'8 7.6
2015-Mar-23 10:33N 26°02' W 079°53'10 9.6
2015-Mar-23 09:32N 25°59' W 079°43'9 9.4
2015-Mar-23 08:34N 25°57' W 079°33'10 9.4
2015-Mar-23 07:33N 25°54' W 079°23'11 9.9
2015-Mar-23 06:26N 25°51' W 079°11'  
2015-Mar-20 16:33N 25°56' W 079°32'9 9.2
2015-Mar-20 15:33N 25°59' W 079°41'9 8.7
2015-Mar-20 14:33N 26°01' W 079°51'9 9.1
2015-Mar-20 13:33N 26°04' W 080°00'6 6.1
2015-Mar-20 12:33N 26°04' W 080°07'1 0.5
2015-Mar-20 11:33N 26°04' W 080°08'0 0.0
2015-Mar-20 10:33N 26°04' W 080°08'0 0.0
2015-Mar-20 09:33N 26°04' W 080°08'0 0.0
2015-Mar-20 08:33N 26°04' W 080°08'0 0.0
2015-Mar-20 07:33N 26°04' W 080°08'0 0.0
2015-Mar-20 06:33N 26°04' W 080°08'0 0.0
2015-Mar-20 05:33N 26°04' W 080°08'0 0.0
2015-Mar-20 04:33N 26°04' W 080°08'0 0.0
2015-Mar-20 03:33N 26°04' W 080°08'0 0.1
2015-Mar-20 02:33N 26°04' W 080°08'5 4.8
2015-Mar-20 01:33N 26°04' W 080°02'1211.6
2015-Mar-20 00:32N 25°57' W 079°52'1211.9
2015-Mar-19 23:32N 25°49' W 079°41'9 0.5
2015-Mar-19 07:16N 25°55' W 079°49'6 8.2
2015-Mar-19 06:31N 25°58' W 079°55'8 8.5
2015-Mar-19 05:33N 26°03' W 080°02'5 5.5
2015-Mar-19 04:33N 26°04' W 080°08'0 0.1
2015-Mar-19 03:33N 26°04' W 080°08'0 0.0
2015-Mar-19 02:33N 26°04' W 080°08'0 0.0
2015-Mar-19 01:33N 26°04' W 080°08'0 0.0
2015-Mar-19 00:33N 26°04' W 080°08'0 0.0
2015-Mar-18 23:33N 26°04' W 080°08'2 1.9
2015-Mar-18 22:33N 26°05' W 080°07'1010.0
2015-Mar-18 21:33N 26°03' W 079°56'1110.8
2015-Mar-18 20:34N 25°60' W 079°44'1110.8
2015-Mar-18 19:30N 25°57' W 079°32'1310.5
2015-Mar-18 18:15N 25°53' W 079°18'  
Track history (hours):
 
Tides and Currents Weather Stations Pressure Air Temp Water Temp Dewpoint Dewpoint Depression Visibility Wind Speed Wind Dir Waves Ship Positions

Seaexpressii

Last reported at 2015-Mar-27 23:06 UTC. Time now 2015-Mar-29 03:08 UTC.
Position N 26°04' W 080°08'.

Length 37 m; draft 2.1 m.

Type: Ship. MMSI: 356449000.

Date/timePositionNaut miles runAvg speedWind from/ knotsBaromVisibWave heightAir tempDewpointWater temp
2015-Mar-27 23:06N 26°04' W 080°08'0 0.0
2015-Mar-27 22:33N 26°04' W 080°08'0 0.0
2015-Mar-27 21:33N 26°04' W 080°08'3 2.8
2015-Mar-27 20:33N 26°05' W 080°05'2 2.2
2015-Mar-27 19:33N 26°04' W 080°03'1010.3
2015-Mar-27 18:33N 25°59' W 079°52'1110.6
2015-Mar-27 17:33N 25°54' W 079°42'1010.0
2015-Mar-27 16:31N 25°50' W 079°32'14 0.9
2015-Mar-27 00:30N 25°43' W 079°19'31 1.8
2015-Mar-26 07:32N 25°55' W 079°50'7 7.4
2015-Mar-26 06:33N 25°60' W 079°56'9 8.6
2015-Mar-26 05:33N 26°05' W 080°04'3 3.5
2015-Mar-26 04:34N 26°04' W 080°08'0 0.0
2015-Mar-26 03:33N 26°04' W 080°08'0 0.0
2015-Mar-26 02:33N 26°04' W 080°08'0 0.0
2015-Mar-26 01:33N 26°04' W 080°08'0 0.1
2015-Mar-26 00:33N 26°04' W 080°08'0 0.0
2015-Mar-25 23:33N 26°04' W 080°08'0 0.0
2015-Mar-25 22:33N 26°04' W 080°08'0 0.0
2015-Mar-25 21:33N 26°04' W 080°08'5 5.2
2015-Mar-25 20:34N 26°06' W 080°03'9 8.7
2015-Mar-25 19:33N 26°09' W 079°54'9 8.8
2015-Mar-25 18:34N 26°12' W 079°44'9 8.9
2015-Mar-25 17:33N 26°15' W 079°35'10 9.5
2015-Mar-25 16:29N 26°19' W 079°25'16 1.4
2015-Mar-25 05:30N 26°14' W 079°41'1010.4
2015-Mar-25 04:33N 26°11' W 079°52'1110.6
2015-Mar-25 03:34N 26°07' W 080°03'6 5.8
2015-Mar-25 02:33N 26°04' W 080°08'0 0.1
2015-Mar-25 01:33N 26°04' W 080°08'0 0.1
2015-Mar-25 00:34N 26°04' W 080°08'0 0.0
2015-Mar-24 23:33N 26°04' W 080°08'0 0.0
2015-Mar-24 22:33N 26°04' W 080°08'0 0.1
2015-Mar-24 21:33N 26°04' W 080°08'0 0.5
2015-Mar-24 20:33N 26°04' W 080°07'7 6.7
2015-Mar-24 19:33N 26°07' W 080°01'9 8.8
2015-Mar-24 18:33N 26°10' W 079°51'8 8.5
2015-Mar-24 17:33N 26°13' W 079°42'9 8.7
2015-Mar-24 16:33N 26°15' W 079°33'9 0.7
2015-Mar-24 03:33N 26°13' W 079°43'1111.3
2015-Mar-24 02:33N 26°09' W 079°55'1110.6
2015-Mar-24 01:33N 26°06' W 080°06'2 2.4
2015-Mar-24 00:33N 26°04' W 080°08'0 0.0
2015-Mar-23 23:34N 26°04' W 080°08'0 0.0
2015-Mar-23 22:34N 26°04' W 080°08'0 0.0
2015-Mar-23 21:33N 26°04' W 080°08'0 0.0
2015-Mar-23 20:33N 26°04' W 080°08'0 0.0
2015-Mar-23 19:33N 26°04' W 080°08'0 0.1
2015-Mar-23 18:33N 26°04' W 080°08'0 0.0
2015-Mar-23 17:33N 26°04' W 080°08'0 0.0
2015-Mar-23 16:33N 26°04' W 080°08'0 0.0
2015-Mar-23 15:33N 26°04' W 080°08'0 0.0
2015-Mar-23 14:33N 26°04' W 080°08'0 0.0
2015-Mar-23 13:33N 26°04' W 080°08'0 0.4
2015-Mar-23 12:33N 26°04' W 080°07'5 5.3
2015-Mar-23 11:33N 26°04' W 080°01'8 7.6
2015-Mar-23 10:33N 26°02' W 079°53'10 9.6
2015-Mar-23 09:32N 25°59' W 079°43'9 9.4
2015-Mar-23 08:34N 25°57' W 079°33'10 9.4
2015-Mar-23 07:33N 25°54' W 079°23'11 9.9
2015-Mar-23 06:26N 25°51' W 079°11'  
2015-Mar-20 16:33N 25°56' W 079°32'9 9.2
2015-Mar-20 15:33N 25°59' W 079°41'9 8.7
2015-Mar-20 14:33N 26°01' W 079°51'9 9.1
2015-Mar-20 13:33N 26°04' W 080°00'6 6.1
2015-Mar-20 12:33N 26°04' W 080°07'1 0.5
2015-Mar-20 11:33N 26°04' W 080°08'0 0.0
2015-Mar-20 10:33N 26°04' W 080°08'0 0.0
2015-Mar-20 09:33N 26°04' W 080°08'0 0.0
2015-Mar-20 08:33N 26°04' W 080°08'0 0.0
2015-Mar-20 07:33N 26°04' W 080°08'0 0.0
2015-Mar-20 06:33N 26°04' W 080°08'0 0.0
2015-Mar-20 05:33N 26°04' W 080°08'0 0.0
2015-Mar-20 04:33N 26°04' W 080°08'0 0.0
2015-Mar-20 03:33N 26°04' W 080°08'0 0.1
2015-Mar-20 02:33N 26°04' W 080°08'5 4.8
2015-Mar-20 01:33N 26°04' W 080°02'1211.6
2015-Mar-20 00:32N 25°57' W 079°52'1211.9
2015-Mar-19 23:32N 25°49' W 079°41'9 0.5
2015-Mar-19 07:16N 25°55' W 079°49'6 8.2
2015-Mar-19 06:31N 25°58' W 079°55'8 8.5
2015-Mar-19 05:33N 26°03' W 080°02'5 5.5
2015-Mar-19 04:33N 26°04' W 080°08'0 0.1
2015-Mar-19 03:33N 26°04' W 080°08'0 0.0
2015-Mar-19 02:33N 26°04' W 080°08'0 0.0
2015-Mar-19 01:33N 26°04' W 080°08'0 0.0
2015-Mar-19 00:33N 26°04' W 080°08'0 0.0
2015-Mar-18 23:33N 26°04' W 080°08'2 1.9
2015-Mar-18 22:33N 26°05' W 080°07'1010.0
2015-Mar-18 21:33N 26°03' W 079°56'1110.8
2015-Mar-18 20:34N 25°60' W 079°44'1110.8
2015-Mar-18 19:30N 25°57' W 079°32'1310.5
2015-Mar-18 18:15N 25°53' W 079°18'  

Dump ship's entire track history